EHWO Airport Information

Runway Information
Runway 07 Length 7996 ft width 148 ft
Elevation 39 ft Threshold 0 ft Heading 69
Runway 25 Length 7996 ft Width 148 ft
Elevation 63 ft Threshold 0 ft Heading 249
Airport Frequencies
Type APP Name RAPCON WES Frequency 123.575 MHZ
Type ARR Name ARRIVAL Frequency 123.575 MHZ
Type TWR Name TWR Frequency 118.5 MHZ
Airport Navaids
Type TACAN Name Woensdrecht Frequency 115000 KHZ
Airport Weather Information & NOTAM
ADDS - METARS form results

(2044 UTC 23 February 2019)
Data provider http://aviationweather.gov/metar/data/
 
METAR text: EHWO 232025Z AUTO 11003KT 9999 NCD 06/03 Q1035 BLU
Conditions at: EHWO (WOENSDRECHT RNLA, NL) observed 2025 UTC 23 February 2019
Temperature: 6.0°C (43°F)
Dewpoint: 3.0°C (37°F) [RH = 81%]
Pressure (altimeter): 30.56 inches Hg (1035.0 mb)
Winds: from the ESE (110 degrees) at 3 MPH (3 knots; 1.5 m/s)
Visibility: 6 or more miles (10+ km)
Ceiling: at least 12,000 feet AGL
Clouds: sky clear below 12,000 feet AGL
Weather: no significant weather observed at this time

METAR text: EHWO 231955Z AUTO 10004KT 9999 NCD 06/03 Q1035 BLU
Conditions at: EHWO (WOENSDRECHT RNLA, NL) observed 1955 UTC 23 February 2019
Temperature: 6.0°C (43°F)
Dewpoint: 3.0°C (37°F) [RH = 81%]
Pressure (altimeter): 30.56 inches Hg (1035.0 mb)
Winds: from the E (100 degrees) at 5 MPH (4 knots; 2.1 m/s)
Visibility: 6 or more miles (10+ km)
Ceiling: at least 12,000 feet AGL
Clouds: sky clear below 12,000 feet AGL
Weather: no significant weather observed at this time